Preston, KY (40366)

8:26 AM EDT on November 01, 2014 (GMT -0400)
Ridge Road Jet Center | Change Station
CLOSE
Current Station
Personal Weather Station
Location: Owingsville, KY
Elevation: 899 ft
Nearby Weather Stations
Active Advisory: Freeze Warning, Special Statement Active Notice: Record Report

Elev 899 ft 38.14 °N, 83.78 °W | Updated 4 minutes ago

Snow
Snow
33.3 °F
Feels Like 24 °F
N
13.0
Wind Variable Wind from NNW

Today
High -- | Low -- °F
--% Chance of Precip.
Yesterday
High -- | Low -- °F
Precip. -- in
8:00 AM 6:35 PM
Waxing Gibbous, 66% visible
Pressure 30.11 in
Visibility 10.0 miles
Clouds Overcast 700 ft
Windchill 24 °F
Dew Point 32 °F
Humidity 97%
Rainfall 0.10 in
Snow Depth Not available.
UV 0 out of 12
Pollen .30 out of 12
Air Quality Not available.
Flu Activity Not available.
METAR KIOB 011215Z AUTO 01009G15KT 10SM OVC007 00/00 A3011 RMK AO2

More Conditions Fewer Conditions

Pressure 30.11 in
Visibility 10.0 miles
Clouds Overcast 700 ft
Windchill 24 °F
Dew Point 32 °F
Humidity 97%
Rainfall 0.10 in
Snow Depth Not available.
UV 0 out of 12
Pollen .30 out of 12
Air Quality Not available.
Flu Activity Not available.
METAR KIOB 011215Z AUTO 01009G15KT 10SM OVC007 00/00 A3011 RMK AO2

More Conditions Fewer Conditions

10-Day Weather Forecast

Almanac

Astronomy

Nov. 01, 2014 Rise Set
Actual Time
Civil Twilight
Nautical Twilight
Astronomical Twilight
Moon
Length of Visible Light
Length of Day
Tomorrow will be .
, % of the Moon is Illuminated

Today's Extremes

State Highs State Lows

Community

WunderPhotos

Upload Photos

1,766,912 photos uploaded!

WunderBlogs® & News

Nearby

Air Quality

  Air Quality AQ Index Pollutant
Not available.

Snow Depth

Station Depth Elevation

Earthquake Activity

City Distance Mag. Time & Date
Minimum magnitude displayed is 2.5.

Coastal Water Temperatures

Place Temperature

Nearby Weather Stations